Aviation Digital Data Service (ADDS)

Output produced by METARs form (1914 UTC 18 June 2019)
found at http://www.aviationweather.gov/metar/data/
 
VTBD 181900Z 19006KT 9999 FEW020 29/25 Q1007 NOSIG
TAF VTBD 181700Z 1818/1924 14005KT 9999 FEW020 SCT040 
     BECMG 1902/1904 21008KT 
     TEMPO 1906/1912 23010G25KT 4000 TSRA FEW018CB SCT030 BKN100
       
TAF VTUO 181700Z 1818/1918 20006KT 9000 FEW025 
     TEMPO 1907/1910 VRB15KT 5000 TSRA FEW018CB SCT025 BKN100
       
VTCC 181900Z 00000KT 9999 BKN035 26/24 Q1008 NOSIG
TAF VTCC 181700Z 1818/1924 20005KT 9999 BKN035 
     TEMPO 1908/1913 VRB15G35KT 5000 TSRA FEW020CB BKN025
       
VTCT 181900Z 17004KT 9999 BKN025 26/24 Q1007 NOSIG
TAF VTCT 181700Z 1818/1924 18005KT 9999 BKN025 
     TEMPO 1908/1914 VRB15G35KT 5000 TSRA FEW020CB BKN025
       
TAF VTSE 181700Z 1818/1918 26005KT 9999 FEW020 BKN100 
     TEMPO 1822/1904 5000 RA SCT015 OVC100 
     TEMPO 1906/1912 26010G20KT 5000 TSRA FEW016CB SCT018 OVC100
       
VTSS 181900Z 00000KT 8000 FEW020 BKN100 24/23 Q1009 NOSIG
TAF VTSS 181700Z 1818/1918 00000KT 9999 FEW020 SCT100 
     TEMPO 1908/1912 24010G20KT 5000 TSRA FEW016CB SCT018 BKN100
       
TAF VTPH 181700Z 1818/1918 21008KT 9999 SCT030 
     TEMPO 1904/1910 20012KT 5000 TSRA FEW018CB SCT030 BKN100
       
VTUK 181900Z 24003KT 220V280 9000 FEW030 SCT100 26/24 Q1006 NOSIG
TAF VTUK 181700Z 1818/1918 21005KT 9000 SCT030
       
VTSG 181800Z 00000KT 8000 FEW020 24/24 Q1010 NOSIG
TAF VTSG 181700Z 1818/1918 00000KT 9999 FEW020 SCT100 
     BECMG 1820/1822 5000 BR 
     BECMG 1900/1902 22008KT 9999 NSW 
     TEMPO 1906/1910 26015G30KT 3000 TSRA FEW018CB SCT020 BKN100
       
TAF VTCL 181700Z 1818/1918 20005KT 9999 SCT025 
     TEMPO 1908/1913 VRB15G35KT 5000 TSRA FEW020CB BKN025
       
TAF VTUL 181700Z 1818/1918 06004KT 9999 SCT025
       
TAF VTCH 181700Z 1818/1918 20005KT 9999 SCT025 
     TEMPO 1908/1913 VRB15G35KT 5000 TSRA FEW020CB BKN025
       
TAF VTPM 181700Z 1818/1918 24005KT 9999 SCT025 
     TEMPO 1908/1913 VRB15G35KT 5000 TSRA FEW020CB BKN025
       
TAF VTUW 181700Z 1818/1918 29003KT 9999 FEW040 
     TEMPO 1908/1915 5000 TSRA FEW018CB
       
VTUQ 181400Z 20008KT CAVOK 28/24 Q1008 NOSIG
TAF VTUQ 181700Z 1818/1918 21006KT 9000 FEW025 
     TEMPO 1907/1910 VRB15KT 5000 TSRA FEW018CB SCT025 BKN100
       
TAF VTSF 181700Z 1818/1918 19003KT 9999 FEW020 SCT100 
     TEMPO 1908/1912 32010G20KT 5000 TSRA FEW016CB SCT018 BKN100
       
TAF VTCN 181700Z 1818/1918 20005KT 9999 SCT025 
     TEMPO 1909/1913 VRB15G35KT 5000 TSRA FEW020CB BKN025
       
VTSC 181500Z 18004KT 9999 FEW020 BKN100 24/23 Q1010 NOSIG
TAF VTSC 181700Z 1818/1918 19003KT 9999 FEW020 BKN100 
     BECMG 1903/1905 09010KT 
     PROB30 
     TEMPO 1908/1913 27010G20KT 5000 TSRA FEW016CB SCT018 BKN100 
     BECMG 1913/1915 19003KT
       
TAF VTSK 181700Z 1818/1918 21003KT 9999 FEW020 SCT100 
     BECMG 1903/1905 06010KT 
     PROB30 
     TEMPO 1908/1913 27010G20KT 5000 TSRA FEW016CB SCT018 BKN100 
     BECMG 1913/1915 18003KT
       
TAF VTPB 181700Z 1818/1918 18005KT 9999 SCT025 
     TEMPO 1908/1912 VRB15G35KT 5000 TSRA FEW020CB BKN025
       
VTPP 181400Z VRB02KT 6000 -TSRA FEW020CB SCT065 26/24 Q1006 RERA BECMG FM1500 8000 NSW
TAF VTPP 181700Z 1818/1918 18005KT 9999 SCT025 
     TEMPO 1909/1913 VRB15G35KT 5000 TSRA FEW020CB BKN025
       
TAF VTCP 181700Z 1818/1918 20005KT 9999 SCT025 
     TEMPO 1909/1913 VRB15G35KT 5000 TSRA FEW020CB BKN025
       
VTSP 181900Z 00000KT 8000 FEW020 SCT100 26/24 Q1011 NOSIG
TAF VTSP 181700Z 1818/1924 00000KT 9999 FEW020 SCT100 
     BECMG 1822/1824 24008KT 
     TEMPO 1900/1904 26015G30KT 3000 TSRA FEW018CB SCT020 BKN100 
     TEMPO 1904/1910 26015G30KT 3000 TSRA FEW018CB SCT020 BKN100
       
VTSR 181500Z 13002KT 9999 BKN020 27/25 Q1009 NOSIG
TAF VTSR 181700Z 1818/1918 00000KT 9999 BKN020 
     TEMPO 1818/1824 24015G25KT 3000 TSRA FEW018CB SCT020 BKN100 
     BECMG 1900/1902 22008KT
       
VTUV 181400Z 11002KT 9000 SCT025 26/24 Q1006 RERA NOSIG
TAF VTUV 181700Z 1818/1918 20006KT 9000 SCT025 
     TEMPO 1907/1910 VRB15KT 5000 TSRA FEW018CB SCT025 BKN100
       
VTUI 181500Z 00000KT 9999 VCTS VCSH FEW030CB SCT035 26/25 Q1007 NOSIG
TAF VTUI 181700Z 1818/1918 31003KT 9999 FEW040 
     TEMPO 1908/1915 5000 TSRA FEW018CB
       
VTSM 181500Z VRB02KT 9999 -RA FEW020 SCT100 27/24 Q1010 NOSIG
TAF VTSM 181700Z 1818/1918 21003KT 9999 FEW020 SCT100 
     TEMPO 1908/1914 29010G20KT 5000 TSRA FEW016CB SCT018 BKN100
       
TAF VTSH 181700Z 1818/1918 21003KT 9999 FEW020 SCT100 
     TEMPO 1908/1912 24010G20KT 5000 TSRA FEW016CB SCT018 BKN100
       
VTPO 181400Z VRB02KT 4000 BR -TSRA FEW020CB BKN025 BKN100 26/23 Q1005 RERA TEMPO 3000 TSRA
TAF VTPO 181700Z 1818/1918 18005KT 9999 SCT025 
     TEMPO 1909/1913 VRB15G35KT 5000 TSRA FEW020CB BKN025
       
VTSB 181500Z 22003KT 8000 FEW020 24/24 Q1010
TAF VTSB 181700Z 1818/1918 21003KT 8000 FEW020 BKN100 
     TEMPO 1907/1913 24010G20KT 5000 TSRA FEW016CB SCT018 BKN100
       
TAF VTPT 181700Z 1818/1918 24005KT 9999 SCT025 
     TEMPO 1908/1913 VRB15G35KT 5000 TSRA FEW020CB BKN025
       
VTST 181800Z 00000KT 9999 FEW020 25/24 Q1008 NOSIG
TAF VTST 181700Z 1818/1918 00000KT 9999 SCT020 
     BECMG 1900/1902 22008KT 
     TEMPO 1906/1910 26015G30KT 3000 TSRA FEW018CB SCT020 BKN100
       
VTBU 181900Z 20009KT 9999 FEW020 SCT100 29/23 Q1007 NOSIG
TAF VTBU 181700Z 1818/1918 22004KT 9999 FEW020 SCT100 
     TEMPO 1820/1901 VRB12KT 5000 TSRA FEW018CB SCT035 BKN100 
     BECMG 1901/1903 24010KT
       
VTUU 181900Z 13003KT 090V200 9999 FEW040 25/24 Q1007 NOSIG
TAF VTUU 181700Z 1818/1918 22005KT 9000 FEW030 
     TEMPO 1908/1911 VRB15KT 5000 TSRA FEW018CB SCT025 BKN100
       
VTUD 181500Z 09003KT 050V120 CAVOK 27/26 Q1007 NOSIG
TAF VTUD 181700Z 1818/1918 20004KT 9999 FEW040 
     TEMPO 1912/1917 5000 TSRA FEW018CB